sensor_id;sensor_type;location;lat;lon;timestamp;P1;durP1;ratioP1;P2;durP2;ratioP2
62149;SDS011;48134;53.586;10.610;2022-09-09T00:00:24;19.90;;;11.10;;
62149;SDS011;48134;53.586;10.610;2022-09-09T00:03:00;18.98;;;10.38;;
62149;SDS011;48134;53.586;10.610;2022-09-09T00:05:38;18.60;;;10.43;;
62149;SDS011;48134;53.586;10.610;2022-09-09T00:08:18;20.30;;;10.20;;
62149;SDS011;48134;53.586;10.610;2022-09-09T00:10:56;18.42;;;10.18;;
62149;SDS011;48134;53.586;10.610;2022-09-09T00:13:34;20.63;;;10.48;;
62149;SDS011;48134;53.586;10.610;2022-09-09T00:16:15;21.80;;;11.43;;
62149;SDS011;48134;53.586;10.610;2022-09-09T00:18:51;22.98;;;10.55;;
62149;SDS011;48134;53.586;10.610;2022-09-09T00:21:25;19.88;;;10.65;;
62149;SDS011;48134;53.586;10.610;2022-09-09T00:24:00;20.10;;;11.20;;
62149;SDS011;48134;53.586;10.610;2022-09-09T00:26:43;27.58;;;10.50;;
62149;SDS011;48134;53.586;10.610;2022-09-09T00:29:21;22.80;;;10.05;;
62149;SDS011;48134;53.586;10.610;2022-09-09T00:32:07;25.60;;;11.25;;
62149;SDS011;48134;53.586;10.610;2022-09-09T00:34:47;34.30;;;11.13;;
62149;SDS011;48134;53.586;10.610;2022-09-09T00:37:24;43.42;;;10.85;;
62149;SDS011;48134;53.586;10.610;2022-09-09T00:39:59;87.55;;;11.02;;
62149;SDS011;48134;53.586;10.610;2022-09-09T00:42:38;23.60;;;9.63;;
62149;SDS011;48134;53.586;10.610;2022-09-09T00:45:19;38.40;;;9.77;;
62149;SDS011;48134;53.586;10.610;2022-09-09T00:48:08;65.25;;;10.35;;
62149;SDS011;48134;53.586;10.610;2022-09-09T00:50:45;71.60;;;9.65;;
62149;SDS011;48134;53.586;10.610;2022-09-09T00:53:28;50.80;;;9.45;;
62149;SDS011;48134;53.586;10.610;2022-09-09T00:56:12;47.30;;;9.93;;
62149;SDS011;48134;53.586;10.610;2022-09-09T01:01:27;24.48;;;9.50;;
62149;SDS011;48134;53.586;10.610;2022-09-09T01:04:00;60.00;;;9.48;;
62149;SDS011;48134;53.586;10.610;2022-09-09T01:06:36;36.50;;;9.48;;
62149;SDS011;48134;53.586;10.610;2022-09-09T01:09:11;25.02;;;8.95;;
62149;SDS011;48134;53.586;10.610;2022-09-09T01:11:52;45.72;;;9.88;;
62149;SDS011;48134;53.586;10.610;2022-09-09T01:14:39;53.08;;;9.70;;
62149;SDS011;48134;53.586;10.610;2022-09-09T01:17:17;25.42;;;9.80;;
62149;SDS011;48134;53.586;10.610;2022-09-09T01:20:04;17.17;;;9.07;;
62149;SDS011;48134;53.586;10.610;2022-09-09T01:22:58;34.47;;;9.88;;
62149;SDS011;48134;53.586;10.610;2022-09-09T01:26:08;28.38;;;8.90;;
62149;SDS011;48134;53.586;10.610;2022-09-09T01:28:47;25.70;;;8.75;;
62149;SDS011;48134;53.586;10.610;2022-09-09T01:31:31;45.00;;;9.55;;
62149;SDS011;48134;53.586;10.610;2022-09-09T01:34:10;35.95;;;9.52;;
62149;SDS011;48134;53.586;10.610;2022-09-09T01:36:46;39.65;;;8.55;;
62149;SDS011;48134;53.586;10.610;2022-09-09T01:39:23;34.50;;;9.30;;
62149;SDS011;48134;53.586;10.610;2022-09-09T01:42:03;30.08;;;9.65;;
62149;SDS011;48134;53.586;10.610;2022-09-09T01:44:39;28.08;;;9.20;;
62149;SDS011;48134;53.586;10.610;2022-09-09T01:47:08;35.42;;;9.50;;
62149;SDS011;48134;53.586;10.610;2022-09-09T01:50:17;46.83;;;9.40;;
62149;SDS011;48134;53.586;10.610;2022-09-09T01:52:52;25.35;;;9.88;;
62149;SDS011;48134;53.586;10.610;2022-09-09T01:55:32;26.25;;;8.70;;
62149;SDS011;48134;53.586;10.610;2022-09-09T01:58:20;36.63;;;9.32;;
62149;SDS011;48134;53.586;10.610;2022-09-09T02:01:06;57.10;;;9.10;;
62149;SDS011;48134;53.586;10.610;2022-09-09T02:03:48;47.15;;;8.93;;
62149;SDS011;48134;53.586;10.610;2022-09-09T02:06:25;56.00;;;9.48;;
62149;SDS011;48134;53.586;10.610;2022-09-09T02:09:10;58.28;;;9.05;;
62149;SDS011;48134;53.586;10.610;2022-09-09T02:11:45;42.30;;;8.90;;
62149;SDS011;48134;53.586;10.610;2022-09-09T02:14:29;29.67;;;8.80;;
62149;SDS011;48134;53.586;10.610;2022-09-09T02:17:03;25.75;;;8.48;;
62149;SDS011;48134;53.586;10.610;2022-09-09T02:19:57;41.28;;;8.40;;
62149;SDS011;48134;53.586;10.610;2022-09-09T02:22:50;28.58;;;7.85;;
62149;SDS011;48134;53.586;10.610;2022-09-09T02:25:26;49.22;;;9.07;;
62149;SDS011;48134;53.586;10.610;2022-09-09T02:28:12;52.30;;;9.00;;
62149;SDS011;48134;53.586;10.610;2022-09-09T02:30:49;34.20;;;8.40;;
62149;SDS011;48134;53.586;10.610;2022-09-09T02:33:35;69.35;;;9.18;;
62149;SDS011;48134;53.586;10.610;2022-09-09T02:36:11;46.08;;;9.23;;
62149;SDS011;48134;53.586;10.610;2022-09-09T02:38:48;64.25;;;8.95;;
62149;SDS011;48134;53.586;10.610;2022-09-09T02:41:30;20.35;;;8.10;;
62149;SDS011;48134;53.586;10.610;2022-09-09T02:44:00;46.92;;;8.55;;
62149;SDS011;48134;53.586;10.610;2022-09-09T02:46:39;37.00;;;8.05;;
62149;SDS011;48134;53.586;10.610;2022-09-09T02:49:21;34.03;;;7.67;;
62149;SDS011;48134;53.586;10.610;2022-09-09T02:51:59;40.33;;;8.00;;
62149;SDS011;48134;53.586;10.610;2022-09-09T02:54:37;16.75;;;8.25;;
62149;SDS011;48134;53.586;10.610;2022-09-09T02:57:10;21.77;;;8.25;;
62149;SDS011;48134;53.586;10.610;2022-09-09T02:59:48;31.98;;;8.68;;
62149;SDS011;48134;53.586;10.610;2022-09-09T03:02:25;33.90;;;9.38;;
62149;SDS011;48134;53.586;10.610;2022-09-09T03:05:04;25.00;;;8.70;;
62149;SDS011;48134;53.586;10.610;2022-09-09T03:07:33;36.70;;;8.30;;
62149;SDS011;48134;53.586;10.610;2022-09-09T03:10:07;17.38;;;8.23;;
62149;SDS011;48134;53.586;10.610;2022-09-09T03:12:37;20.17;;;7.85;;
62149;SDS011;48134;53.586;10.610;2022-09-09T03:15:11;25.48;;;8.23;;
62149;SDS011;48134;53.586;10.610;2022-09-09T03:17:46;63.17;;;9.35;;
62149;SDS011;48134;53.586;10.610;2022-09-09T03:20:19;35.25;;;9.82;;
62149;SDS011;48134;53.586;10.610;2022-09-09T03:22:52;21.48;;;8.57;;
62149;SDS011;48134;53.586;10.610;2022-09-09T03:25:26;24.63;;;8.73;;
62149;SDS011;48134;53.586;10.610;2022-09-09T03:28:00;17.20;;;8.27;;
62149;SDS011;48134;53.586;10.610;2022-09-09T03:30:34;19.55;;;7.38;;
62149;SDS011;48134;53.586;10.610;2022-09-09T03:33:09;17.80;;;8.63;;
62149;SDS011;48134;53.586;10.610;2022-09-09T03:35:45;22.23;;;8.83;;
62149;SDS011;48134;53.586;10.610;2022-09-09T03:38:20;23.52;;;8.48;;
62149;SDS011;48134;53.586;10.610;2022-09-09T03:40:55;29.52;;;8.93;;
62149;SDS011;48134;53.586;10.610;2022-09-09T03:43:30;23.77;;;8.55;;
62149;SDS011;48134;53.586;10.610;2022-09-09T03:46:04;16.15;;;7.85;;
62149;SDS011;48134;53.586;10.610;2022-09-09T03:48:38;19.95;;;8.40;;
62149;SDS011;48134;53.586;10.610;2022-09-09T03:51:07;22.42;;;8.50;;
62149;SDS011;48134;53.586;10.610;2022-09-09T03:53:40;18.88;;;8.20;;
62149;SDS011;48134;53.586;10.610;2022-09-09T03:56:14;21.60;;;8.02;;
62149;SDS011;48134;53.586;10.610;2022-09-09T03:58:42;22.17;;;8.88;;
62149;SDS011;48134;53.586;10.610;2022-09-09T04:01:15;17.40;;;8.00;;
62149;SDS011;48134;53.586;10.610;2022-09-09T04:03:50;29.20;;;8.73;;
62149;SDS011;48134;53.586;10.610;2022-09-09T04:06:19;21.27;;;8.02;;
62149;SDS011;48134;53.586;10.610;2022-09-09T04:08:53;14.25;;;8.27;;
62149;SDS011;48134;53.586;10.610;2022-09-09T04:11:27;14.00;;;7.25;;
62149;SDS011;48134;53.586;10.610;2022-09-09T04:14:00;16.23;;;8.63;;
62149;SDS011;48134;53.586;10.610;2022-09-09T04:16:34;17.77;;;8.45;;
62149;SDS011;48134;53.586;10.610;2022-09-09T04:19:10;16.05;;;8.95;;
62149;SDS011;48134;53.586;10.610;2022-09-09T04:21:45;18.27;;;9.10;;
62149;SDS011;48134;53.586;10.610;2022-09-09T04:24:22;19.60;;;9.25;;
62149;SDS011;48134;53.586;10.610;2022-09-09T04:27:00;21.30;;;9.10;;
62149;SDS011;48134;53.586;10.610;2022-09-09T04:29:35;27.45;;;9.70;;
62149;SDS011;48134;53.586;10.610;2022-09-09T04:32:08;21.45;;;9.02;;
62149;SDS011;48134;53.586;10.610;2022-09-09T04:34:43;25.17;;;8.18;;
62149;SDS011;48134;53.586;10.610;2022-09-09T04:37:17;28.58;;;8.05;;
62149;SDS011;48134;53.586;10.610;2022-09-09T04:39:50;29.35;;;8.38;;
62149;SDS011;48134;53.586;10.610;2022-09-09T04:42:23;25.13;;;8.57;;
62149;SDS011;48134;53.586;10.610;2022-09-09T04:44:57;20.33;;;7.63;;
62149;SDS011;48134;53.586;10.610;2022-09-09T04:47:25;20.98;;;7.85;;
62149;SDS011;48134;53.586;10.610;2022-09-09T04:49:59;16.00;;;7.82;;
62149;SDS011;48134;53.586;10.610;2022-09-09T04:52:33;26.25;;;8.50;;
62149;SDS011;48134;53.586;10.610;2022-09-09T04:55:07;15.25;;;8.00;;
62149;SDS011;48134;53.586;10.610;2022-09-09T04:57:36;18.00;;;8.13;;
62149;SDS011;48134;53.586;10.610;2022-09-09T05:00:11;13.90;;;7.88;;
62149;SDS011;48134;53.586;10.610;2022-09-09T05:02:46;18.92;;;7.95;;
62149;SDS011;48134;53.586;10.610;2022-09-09T05:05:20;15.52;;;7.85;;
62149;SDS011;48134;53.586;10.610;2022-09-09T05:07:54;17.95;;;8.63;;
62149;SDS011;48134;53.586;10.610;2022-09-09T05:10:22;13.18;;;7.95;;
62149;SDS011;48134;53.586;10.610;2022-09-09T05:12:53;14.77;;;7.88;;
62149;SDS011;48134;53.586;10.610;2022-09-09T05:15:29;14.57;;;7.85;;
62149;SDS011;48134;53.586;10.610;2022-09-09T05:18:03;12.88;;;7.47;;
62149;SDS011;48134;53.586;10.610;2022-09-09T05:20:37;13.05;;;7.13;;
62149;SDS011;48134;53.586;10.610;2022-09-09T05:23:10;13.02;;;7.43;;
62149;SDS011;48134;53.586;10.610;2022-09-09T05:25:53;12.43;;;7.28;;
62149;SDS011;48134;53.586;10.610;2022-09-09T05:28:28;14.13;;;7.57;;
62149;SDS011;48134;53.586;10.610;2022-09-09T05:30:57;12.13;;;7.40;;
62149;SDS011;48134;53.586;10.610;2022-09-09T05:33:33;14.17;;;7.63;;
62149;SDS011;48134;53.586;10.610;2022-09-09T05:36:05;12.85;;;7.82;;
62149;SDS011;48134;53.586;10.610;2022-09-09T05:38:41;12.88;;;7.28;;
62149;SDS011;48134;53.586;10.610;2022-09-09T05:41:15;12.48;;;7.63;;
62149;SDS011;48134;53.586;10.610;2022-09-09T05:43:50;13.10;;;7.45;;
62149;SDS011;48134;53.586;10.610;2022-09-09T05:46:24;11.80;;;6.80;;
62149;SDS011;48134;53.586;10.610;2022-09-09T05:48:57;12.23;;;6.95;;
62149;SDS011;48134;53.586;10.610;2022-09-09T05:51:31;14.30;;;7.25;;
62149;SDS011;48134;53.586;10.610;2022-09-09T05:54:09;12.93;;;6.85;;
62149;SDS011;48134;53.586;10.610;2022-09-09T05:56:41;11.18;;;6.72;;
62149;SDS011;48134;53.586;10.610;2022-09-09T05:59:15;11.80;;;6.97;;
62149;SDS011;48134;53.586;10.610;2022-09-09T06:01:50;12.82;;;6.55;;
62149;SDS011;48134;53.586;10.610;2022-09-09T06:04:29;10.32;;;6.50;;
62149;SDS011;48134;53.586;10.610;2022-09-09T06:07:05;11.60;;;6.63;;
62149;SDS011;48134;53.586;10.610;2022-09-09T06:09:38;11.85;;;6.65;;
62149;SDS011;48134;53.586;10.610;2022-09-09T06:12:11;12.50;;;6.70;;
62149;SDS011;48134;53.586;10.610;2022-09-09T06:14:45;10.43;;;5.80;;
62149;SDS011;48134;53.586;10.610;2022-09-09T06:17:18;11.02;;;6.45;;
62149;SDS011;48134;53.586;10.610;2022-09-09T06:19:52;10.20;;;5.90;;
62149;SDS011;48134;53.586;10.610;2022-09-09T06:22:26;10.82;;;6.10;;
62149;SDS011;48134;53.586;10.610;2022-09-09T06:25:00;12.02;;;5.80;;
62149;SDS011;48134;53.586;10.610;2022-09-09T06:27:33;10.55;;;5.55;;
62149;SDS011;48134;53.586;10.610;2022-09-09T06:30:01;12.55;;;5.43;;
62149;SDS011;48134;53.586;10.610;2022-09-09T06:32:34;16.60;;;5.75;;
62149;SDS011;48134;53.586;10.610;2022-09-09T06:35:04;8.43;;;5.13;;
62149;SDS011;48134;53.586;10.610;2022-09-09T06:37:44;7.65;;;4.75;;
62149;SDS011;48134;53.586;10.610;2022-09-09T06:40:18;8.45;;;4.90;;
62149;SDS011;48134;53.586;10.610;2022-09-09T06:42:52;9.25;;;5.18;;
62149;SDS011;48134;53.586;10.610;2022-09-09T06:48:12;7.93;;;4.18;;
62149;SDS011;48134;53.586;10.610;2022-09-09T06:50:45;8.70;;;5.25;;
62149;SDS011;48134;53.586;10.610;2022-09-09T06:53:20;8.63;;;4.78;;
62149;SDS011;48134;53.586;10.610;2022-09-09T06:55:54;8.02;;;4.85;;
62149;SDS011;48134;53.586;10.610;2022-09-09T06:58:27;8.07;;;4.70;;
62149;SDS011;48134;53.586;10.610;2022-09-09T07:01:02;8.60;;;4.22;;
62149;SDS011;48134;53.586;10.610;2022-09-09T07:03:36;8.27;;;4.70;;
62149;SDS011;48134;53.586;10.610;2022-09-09T07:06:12;7.35;;;4.18;;
62149;SDS011;48134;53.586;10.610;2022-09-09T07:08:49;7.40;;;4.30;;
62149;SDS011;48134;53.586;10.610;2022-09-09T07:11:26;7.20;;;4.25;;
62149;SDS011;48134;53.586;10.610;2022-09-09T07:14:02;8.18;;;4.00;;
62149;SDS011;48134;53.586;10.610;2022-09-09T07:16:35;7.57;;;4.07;;
62149;SDS011;48134;53.586;10.610;2022-09-09T07:19:09;9.45;;;3.97;;
62149;SDS011;48134;53.586;10.610;2022-09-09T07:21:44;7.72;;;4.05;;
62149;SDS011;48134;53.586;10.610;2022-09-09T07:24:17;8.32;;;3.70;;
62149;SDS011;48134;53.586;10.610;2022-09-09T07:26:48;6.68;;;3.97;;
62149;SDS011;48134;53.586;10.610;2022-09-09T07:29:17;7.57;;;3.42;;
62149;SDS011;48134;53.586;10.610;2022-09-09T07:31:50;8.73;;;3.67;;
62149;SDS011;48134;53.586;10.610;2022-09-09T07:34:23;5.82;;;3.15;;
62149;SDS011;48134;53.586;10.610;2022-09-09T07:36:51;5.75;;;3.20;;
62149;SDS011;48134;53.586;10.610;2022-09-09T07:39:26;5.78;;;3.40;;
62149;SDS011;48134;53.586;10.610;2022-09-09T07:41:59;7.80;;;3.63;;
62149;SDS011;48134;53.586;10.610;2022-09-09T07:44:35;5.97;;;3.70;;
62149;SDS011;48134;53.586;10.610;2022-09-09T07:47:11;6.47;;;3.73;;
62149;SDS011;48134;53.586;10.610;2022-09-09T07:49:46;8.27;;;3.60;;
62149;SDS011;48134;53.586;10.610;2022-09-09T07:52:26;5.40;;;3.30;;
62149;SDS011;48134;53.586;10.610;2022-09-09T07:55:04;6.03;;;3.67;;
62149;SDS011;48134;53.586;10.610;2022-09-09T07:57:38;8.27;;;3.28;;
62149;SDS011;48134;53.586;10.610;2022-09-09T08:00:12;7.20;;;3.42;;
62149;SDS011;48134;53.586;10.610;2022-09-09T08:02:51;6.68;;;3.47;;
62149;SDS011;48134;53.586;10.610;2022-09-09T08:05:25;7.15;;;3.15;;
62149;SDS011;48134;53.586;10.610;2022-09-09T08:07:58;5.78;;;3.35;;
62149;SDS011;48134;53.586;10.610;2022-09-09T08:10:33;5.78;;;3.30;;
62149;SDS011;48134;53.586;10.610;2022-09-09T08:13:08;6.57;;;3.42;;
62149;SDS011;48134;53.586;10.610;2022-09-09T08:15:41;4.18;;;2.80;;
62149;SDS011;48134;53.586;10.610;2022-09-09T08:18:10;5.88;;;2.95;;
62149;SDS011;48134;53.586;10.610;2022-09-09T08:20:44;6.78;;;3.00;;
62149;SDS011;48134;53.586;10.610;2022-09-09T08:23:12;5.45;;;2.85;;
62149;SDS011;48134;53.586;10.610;2022-09-09T08:25:46;5.93;;;2.92;;
62149;SDS011;48134;53.586;10.610;2022-09-09T08:28:20;4.45;;;2.85;;
62149;SDS011;48134;53.586;10.610;2022-09-09T08:30:53;7.03;;;2.95;;
62149;SDS011;48134;53.586;10.610;2022-09-09T08:33:26;4.70;;;2.90;;
62149;SDS011;48134;53.586;10.610;2022-09-09T08:35:54;8.63;;;3.03;;
62149;SDS011;48134;53.586;10.610;2022-09-09T08:38:23;4.55;;;2.47;;
62149;SDS011;48134;53.586;10.610;2022-09-09T08:40:58;4.80;;;2.70;;
62149;SDS011;48134;53.586;10.610;2022-09-09T08:46:20;5.78;;;2.40;;
62149;SDS011;48134;53.586;10.610;2022-09-09T08:48:59;3.95;;;2.30;;
62149;SDS011;48134;53.586;10.610;2022-09-09T08:51:38;4.00;;;2.40;;
62149;SDS011;48134;53.586;10.610;2022-09-09T08:54:12;5.80;;;2.53;;
62149;SDS011;48134;53.586;10.610;2022-09-09T08:56:46;16.40;;;2.55;;
62149;SDS011;48134;53.586;10.610;2022-09-09T08:59:21;5.55;;;2.80;;
62149;SDS011;48134;53.586;10.610;2022-09-09T09:01:52;6.22;;;2.40;;
62149;SDS011;48134;53.586;10.610;2022-09-09T09:04:44;5.00;;;2.67;;
